Time;durP1;ratioP1;P1;durP2;ratioP2;P2;SDS_P1;SDS_P2;PMS_P1;PMS_P2;Temp;Humidity;BMP_temperature;BMP_pressure;BME280_temperature;BME280_humidity;BME280_pressure;Samples;Min_cycle;Max_cycle;Signal;HPM_P1;HPM_P2
2023/05/22 00:01:36;;;;;;;5.97;3.70;;;10.30;99.90;;;;;;5028207;28;20162;-86
2023/05/22 00:04:01;;;;;;;6.35;3.47;;;10.30;99.90;;;;;;5049217;28;20036;-87
2023/05/22 00:06:27;;;;;;;12.25;3.50;;;10.20;99.90;;;;;;5049738;28;20041;-86
2023/05/22 00:08:52;;;;;;;5.88;3.00;;;10.10;99.90;;;;;;5030605;28;20140;-86
2023/05/22 00:11:18;;;;;;;7.55;3.22;;;10.10;99.90;;;;;;5030389;28;20528;-86
2023/05/22 00:13:44;;;;;;;8.85;3.30;;;10.00;99.90;;;;;;5048353;28;20044;-86
2023/05/22 00:16:09;;;;;;;6.72;3.00;;;10.00;99.90;;;;;;5030456;28;20373;-86
2023/05/22 00:18:35;;;;;;;8.05;3.28;;;9.90;99.90;;;;;;5038207;28;20400;-86
2023/05/22 00:21:00;;;;;;;4.50;2.75;;;9.90;99.90;;;;;;5047765;28;20465;-85
2023/05/22 00:23:29;;;;;;;5.95;3.38;;;9.90;99.90;;;;;;5060864;28;20044;-85
2023/05/22 00:25:54;;;;;;;6.28;3.47;;;9.90;99.90;;;;;;5049810;28;20491;-86
2023/05/22 00:28:20;;;;;;;6.75;3.33;;;9.90;99.90;;;;;;5066369;28;20052;-85
2023/05/22 00:30:46;;;;;;;7.80;3.60;;;9.80;99.90;;;;;;5068728;28;20104;-85
2023/05/22 00:33:11;;;;;;;5.07;2.50;;;9.80;99.90;;;;;;5048927;28;20033;-86
2023/05/22 00:35:37;;;;;;;6.13;2.92;;;9.80;99.90;;;;;;5046438;28;20029;-86
2023/05/22 00:38:05;;;;;;;5.25;2.83;;;9.80;99.90;;;;;;5046542;28;20147;-87
2023/05/22 00:40:30;;;;;;;10.05;3.55;;;9.80;99.90;;;;;;5068417;28;20085;-85
2023/05/22 00:42:56;;;;;;;4.35;2.63;;;9.80;99.90;;;;;;5043808;28;20809;-86
2023/05/22 00:45:23;;;;;;;5.85;2.75;;;9.80;99.90;;;;;;5067233;28;20028;-85
2023/05/22 00:47:49;;;;;;;5.10;2.60;;;9.80;99.90;;;;;;5033061;28;20451;-86
2023/05/22 00:50:15;;;;;;;4.38;2.85;;;9.70;99.90;;;;;;5042754;28;20076;-86
2023/05/22 00:52:42;;;;;;;4.32;2.42;;;9.70;99.90;;;;;;5048103;28;20467;-86
2023/05/22 00:55:10;;;;;;;4.10;2.35;;;9.70;99.90;;;;;;5047851;28;20032;-85
2023/05/22 00:57:40;;;;;;;4.70;2.78;;;9.70;99.90;;;;;;5048005;28;20136;-86
2023/05/22 01:00:09;;;;;;;5.65;2.67;;;9.70;99.90;;;;;;5066034;28;20091;-85
2023/05/22 01:02:36;;;;;;;8.68;2.83;;;9.60;99.90;;;;;;5048137;28;20032;-86
2023/05/22 01:05:04;;;;;;;6.60;3.20;;;9.60;99.90;;;;;;5049371;28;20029;-85
2023/05/22 01:07:30;;;;;;;6.57;3.15;;;9.50;99.90;;;;;;5050072;28;20075;-86
2023/05/22 01:09:56;;;;;;;4.50;2.95;;;9.50;99.90;;;;;;5048860;28;20066;-85
2023/05/22 01:12:43;;;;;;;5.80;2.85;;;9.50;99.90;;;;;;5032770;28;20067;-87
2023/05/22 01:15:53;;;;;;;4.15;2.70;;;9.40;99.90;;;;;;5044788;28;20041;-86
2023/05/22 01:18:35;;;;;;;7.15;3.15;;;9.40;99.90;;;;;;4980898;28;20026;-87
2023/05/22 01:21:29;;;;;;;3.97;2.70;;;9.30;99.90;;;;;;5045106;28;20051;-86
2023/05/22 01:24:24;;;;;;;7.20;3.25;;;9.30;99.90;;;;;;5056308;28;20033;-86
2023/05/22 01:27:13;;;;;;;6.43;3.20;;;9.30;99.90;;;;;;5050191;28;20179;-87
2023/05/22 01:30:00;;;;;;;5.88;2.78;;;9.30;99.90;;;;;;5066792;28;20074;-86
2023/05/22 01:32:27;;;;;;;5.10;2.63;;;9.30;99.90;;;;;;5064739;28;20154;-87
2023/05/22 01:34:58;;;;;;;5.60;3.10;;;9.30;99.90;;;;;;5064843;28;20060;-86
2023/05/22 01:37:24;;;;;;;7.28;3.10;;;9.20;99.90;;;;;;5049151;28;20071;-87
2023/05/22 01:39:50;;;;;;;5.45;3.28;;;9.20;99.90;;;;;;5066680;28;20043;-87
2023/05/22 01:42:17;;;;;;;5.35;2.90;;;9.20;99.90;;;;;;5048505;28;20029;-86
2023/05/22 01:44:42;;;;;;;6.53;2.53;;;9.20;99.90;;;;;;5043957;28;20589;-86
2023/05/22 01:47:09;;;;;;;5.07;2.85;;;9.20;99.90;;;;;;5042922;28;20127;-86
2023/05/22 01:49:35;;;;;;;5.45;2.70;;;9.20;99.90;;;;;;5047161;28;20086;-87
2023/05/22 01:52:27;;;;;;;6.35;2.70;;;9.20;99.90;;;;;;5048062;28;20069;-86
2023/05/22 01:55:20;;;;;;;3.97;2.75;;;9.20;99.90;;;;;;5013139;28;20044;-87
2023/05/22 01:57:56;;;;;;;7.20;2.88;;;9.20;99.90;;;;;;5030391;28;20043;-87
2023/05/22 02:00:24;;;;;;;6.25;2.97;;;9.20;99.90;;;;;;5055934;28;20021;-86
2023/05/22 02:02:59;;;;;;;8.13;3.65;;;9.20;99.90;;;;;;5485412;22;20134;-87
2023/05/22 02:05:26;;;;;;;6.10;3.35;;;9.10;99.90;;;;;;5059533;22;20062;-73
2023/05/22 02:07:57;;;;;;;6.65;2.75;;;9.10;99.90;;;;;;5038842;28;20029;-72
2023/05/22 02:10:24;;;;;;;4.25;2.72;;;9.10;99.90;;;;;;5050933;28;20274;-73
2023/05/22 02:12:50;;;;;;;3.80;2.80;;;9.00;99.90;;;;;;5032678;28;20070;-72
2023/05/22 02:15:16;;;;;;;4.38;2.70;;;8.90;99.90;;;;;;5021983;28;20072;-72
2023/05/22 02:17:43;;;;;;;6.25;2.78;;;8.90;99.90;;;;;;5050034;28;20035;-73
2023/05/22 02:20:13;;;;;;;5.80;2.95;;;8.90;99.90;;;;;;5024187;28;20037;-72
2023/05/22 02:22:44;;;;;;;6.10;2.72;;;8.90;99.90;;;;;;5019901;28;20574;-72
2023/05/22 02:25:13;;;;;;;4.32;2.63;;;8.90;99.90;;;;;;5037048;28;20351;-72
2023/05/22 02:27:50;;;;;;;5.80;2.80;;;8.90;99.90;;;;;;5040607;28;20493;-72
2023/05/22 02:30:16;;;;;;;3.92;2.63;;;8.80;99.90;;;;;;5035158;28;20025;-72
2023/05/22 02:32:42;;;;;;;7.45;2.92;;;8.80;99.90;;;;;;5043317;28;20411;-72
2023/05/22 02:35:08;;;;;;;8.65;3.17;;;8.70;99.90;;;;;;5053544;28;20457;-72
2023/05/22 02:37:34;;;;;;;4.82;2.90;;;8.70;99.90;;;;;;5054794;28;20036;-71
2023/05/22 02:40:00;;;;;;;6.10;2.78;;;8.70;99.90;;;;;;5054614;28;20089;-71
2023/05/22 02:42:26;;;;;;;4.85;2.60;;;8.70;99.90;;;;;;5056011;28;20499;-71
2023/05/22 02:44:51;;;;;;;10.60;3.10;;;8.70;99.90;;;;;;5056218;28;20043;-72
2023/05/22 02:47:17;;;;;;;8.23;2.78;;;8.70;99.90;;;;;;5042597;28;20024;-72
2023/05/22 02:49:44;;;;;;;5.03;3.40;;;8.70;99.90;;;;;;5051150;28;20032;-71
2023/05/22 02:52:09;;;;;;;5.43;2.88;;;8.70;99.90;;;;;;5037111;28;20390;-72
2023/05/22 02:54:35;;;;;;;7.90;3.13;;;8.70;99.90;;;;;;5029333;28;20052;-71
2023/05/22 02:57:01;;;;;;;6.28;3.67;;;8.60;99.90;;;;;;5022157;28;20029;-71
2023/05/22 02:59:27;;;;;;;6.28;2.88;;;8.60;99.90;;;;;;5052470;28;20033;-71
2023/05/22 03:01:53;;;;;;;7.80;3.08;;;8.60;99.90;;;;;;5056330;28;20051;-71
2023/05/22 03:07:00;;;;;;;;;;;8.50;99.90;;;;;;2700820;22;21384;-71
2023/05/22 03:09:26;;;;;;;5.15;2.70;;;8.50;99.90;;;;;;5049280;28;19916;-71
2023/05/22 03:11:51;;;;;;;6.18;2.25;;;8.40;99.90;;;;;;5059812;28;20032;-70
2023/05/22 03:14:17;;;;;;;5.63;2.65;;;8.40;99.90;;;;;;5057976;28;20104;-71
2023/05/22 03:16:43;;;;;;;6.90;3.08;;;8.40;99.90;;;;;;5037057;28;20450;-71
2023/05/22 03:19:11;;;;;;;7.60;3.20;;;8.40;99.90;;;;;;5057463;28;20033;-71
2023/05/22 03:21:37;;;;;;;6.80;3.00;;;8.30;99.90;;;;;;5071772;28;20122;-70
2023/05/22 03:24:03;;;;;;;6.43;3.08;;;8.40;99.90;;;;;;5070295;28;20047;-71
2023/05/22 03:26:29;;;;;;;10.23;2.83;;;8.30;99.90;;;;;;5033876;28;20135;-71
2023/05/22 03:28:58;;;;;;;5.15;2.67;;;8.30;99.90;;;;;;5054039;28;20033;-71
2023/05/22 03:31:25;;;;;;;5.60;2.58;;;8.20;99.90;;;;;;5047150;28;20566;-70
2023/05/22 03:33:50;;;;;;;5.50;2.92;;;8.30;99.90;;;;;;5078010;28;20032;-70
2023/05/22 03:36:17;;;;;;;8.32;3.20;;;8.30;99.90;;;;;;5072024;28;20084;-71
2023/05/22 03:38:42;;;;;;;4.88;3.30;;;8.40;99.90;;;;;;5076330;28;20028;-71
2023/05/22 03:41:08;;;;;;;4.72;2.88;;;8.40;99.90;;;;;;5068728;28;20348;-71
2023/05/22 03:43:34;;;;;;;5.07;2.80;;;8.50;99.90;;;;;;5065357;28;20130;-72
2023/05/22 03:46:00;;;;;;;5.50;2.65;;;8.60;99.90;;;;;;5064804;28;20043;-71
2023/05/22 03:48:25;;;;;;;5.82;3.13;;;8.70;99.90;;;;;;5065666;28;20139;-71
2023/05/22 03:50:51;;;;;;;7.57;3.25;;;8.90;99.90;;;;;;5050052;28;20464;-71
2023/05/22 03:53:16;;;;;;;4.63;2.78;;;8.90;99.90;;;;;;5051513;28;20043;-71
2023/05/22 03:55:42;;;;;;;5.70;2.20;;;9.00;99.90;;;;;;5080848;28;20415;-71
2023/05/22 03:58:08;;;;;;;4.43;2.88;;;9.10;99.90;;;;;;5080437;28;20374;-71
2023/05/22 04:00:33;;;;;;;5.25;3.22;;;9.20;99.90;;;;;;5064914;28;20032;-71
2023/05/22 04:03:00;;;;;;;6.50;3.10;;;9.20;99.90;;;;;;5079567;28;20117;-71
2023/05/22 04:05:25;;;;;;;4.80;3.03;;;9.30;99.90;;;;;;5048608;28;20040;-71
2023/05/22 04:07:51;;;;;;;6.90;3.35;;;9.40;99.90;;;;;;5441506;22;20049;-76
2023/05/22 04:10:17;;;;;;;7.75;3.05;;;9.40;99.90;;;;;;5012199;23;20033;-71
2023/05/22 04:12:42;;;;;;;5.78;3.05;;;9.50;99.90;;;;;;4982568;28;20022;-71
2023/05/22 04:15:08;;;;;;;5.65;2.70;;;9.50;99.90;;;;;;4987518;28;20037;-71
2023/05/22 04:17:38;;;;;;;5.60;3.22;;;9.60;99.90;;;;;;4986690;28;20030;-71
2023/05/22 04:20:05;;;;;;;5.55;2.60;;;9.60;99.90;;;;;;4986911;28;20452;-71
2023/05/22 04:22:32;;;;;;;5.07;3.00;;;9.70;99.90;;;;;;4990836;28;20063;-71
2023/05/22 04:24:58;;;;;;;6.70;2.95;;;9.70;99.90;;;;;;4986272;28;20107;-72
2023/05/22 04:27:23;;;;;;;6.80;2.90;;;9.80;99.90;;;;;;4959808;28;20226;-71
2023/05/22 04:29:49;;;;;;;4.68;3.05;;;9.90;99.90;;;;;;4995206;28;20068;-71
2023/05/22 04:32:20;;;;;;;6.82;2.80;;;10.00;99.90;;;;;;4979727;28;20536;-71
2023/05/22 04:34:49;;;;;;;5.50;3.22;;;10.10;99.90;;;;;;5002537;28;20061;-71
2023/05/22 04:37:17;;;;;;;5.18;2.85;;;10.20;99.90;;;;;;5002094;28;20037;-71
2023/05/22 04:39:44;;;;;;;5.70;2.70;;;10.20;99.90;;;;;;4987514;28;20046;-71
2023/05/22 04:42:13;;;;;;;4.63;3.00;;;10.30;99.90;;;;;;4994673;28;20018;-71
2023/05/22 04:44:39;;;;;;;5.68;2.83;;;10.50;99.90;;;;;;5006599;28;20494;-71
2023/05/22 04:47:06;;;;;;;5.20;2.90;;;10.60;99.90;;;;;;5017814;28;20085;-71
2023/05/22 04:49:32;;;;;;;6.43;3.13;;;10.70;99.90;;;;;;4999227;28;20029;-71
2023/05/22 04:52:03;;;;;;;6.75;3.33;;;10.90;99.90;;;;;;4994466;28;20044;-71
2023/05/22 04:54:29;;;;;;;4.10;2.47;;;11.00;99.90;;;;;;4998480;28;20053;-71
2023/05/22 04:56:54;;;;;;;5.65;3.05;;;11.00;99.90;;;;;;4979216;28;20038;-71
2023/05/22 04:59:22;;;;;;;10.23;3.40;;;11.10;99.90;;;;;;4986384;28;20090;-71
2023/05/22 05:01:49;;;;;;;6.35;3.30;;;11.20;99.90;;;;;;4991919;28;20033;-71
2023/05/22 05:04:16;;;;;;;6.00;3.20;;;11.20;99.90;;;;;;5394282;23;20027;-76
2023/05/22 05:06:42;;;;;;;4.85;3.13;;;11.20;99.90;;;;;;4993725;28;20045;-76
2023/05/22 05:09:08;;;;;;;8.57;3.67;;;11.30;99.90;;;;;;4985306;28;20520;-75
2023/05/22 05:11:33;;;;;;;4.55;2.97;;;11.30;99.90;;;;;;4994873;28;20029;-76
2023/05/22 05:13:59;;;;;;;6.22;3.65;;;11.40;99.90;;;;;;5018176;28;20047;-75
2023/05/22 05:16:25;;;;;;;6.65;3.42;;;11.40;99.90;;;;;;5015331;28;20038;-75
2023/05/22 05:18:51;;;;;;;5.47;3.20;;;11.60;99.90;;;;;;4993455;28;20108;-75
2023/05/22 05:21:17;;;;;;;7.57;3.13;;;11.70;99.90;;;;;;4990924;28;20030;-76
2023/05/22 05:23:42;;;;;;;11.65;3.08;;;11.80;99.90;;;;;;5000072;28;20033;-76
2023/05/22 05:26:08;;;;;;;5.22;2.78;;;11.90;99.90;;;;;;5001444;28;20062;-76
2023/05/22 05:28:34;;;;;;;7.47;3.20;;;12.10;99.90;;;;;;5019183;28;20084;-76
2023/05/22 05:31:00;;;;;;;9.82;3.17;;;12.20;99.90;;;;;;4999043;28;20040;-76
2023/05/22 05:33:26;;;;;;;5.90;3.00;;;12.40;99.90;;;;;;4989751;28;20037;-76
2023/05/22 05:35:52;;;;;;;5.82;3.10;;;12.50;99.90;;;;;;5002803;28;20061;-76
2023/05/22 05:38:18;;;;;;;5.95;3.42;;;12.70;99.90;;;;;;5020550;28;20063;-75
2023/05/22 05:40:44;;;;;;;4.18;2.72;;;12.90;99.90;;;;;;5021075;28;20040;-76
2023/05/22 05:43:10;;;;;;;4.57;3.03;;;13.00;99.90;;;;;;5022541;28;20060;-76
2023/05/22 05:45:35;;;;;;;4.00;2.78;;;13.20;99.90;;;;;;5016231;28;20120;-76
2023/05/22 05:48:01;;;;;;;8.93;3.35;;;13.40;99.90;;;;;;4999481;28;20347;-75
2023/05/22 05:50:26;;;;;;;8.30;5.07;;;13.60;99.90;;;;;;5018916;28;20503;-76
2023/05/22 05:52:52;;;;;;;5.45;2.83;;;13.70;99.90;;;;;;5005319;28;20421;-77
2023/05/22 05:55:18;;;;;;;6.80;3.00;;;13.90;99.90;;;;;;5017682;28;20045;-75
2023/05/22 05:57:43;;;;;;;5.63;2.75;;;14.10;99.90;;;;;;5015349;28;20420;-75
2023/05/22 06:00:10;;;;;;;6.85;2.75;;;14.30;99.90;;;;;;4999910;28;20034;-76
2023/05/22 06:02:36;;;;;;;6.43;2.90;;;14.50;99.90;;;;;;5027527;28;20035;-76
2023/05/22 06:05:06;;;;;;;6.07;3.00;;;14.70;99.90;;;;;;5021570;28;20069;-76
2023/05/22 06:07:33;;;;;;;6.45;2.83;;;14.90;99.90;;;;;;5014498;28;20029;-75
2023/05/22 06:09:58;;;;;;;5.07;2.90;;;15.00;99.90;;;;;;5020390;28;20415;-75
2023/05/22 06:12:24;;;;;;;7.43;3.10;;;15.20;99.90;;;;;;5028942;28;20037;-76
2023/05/22 06:14:49;;;;;;;7.47;3.45;;;15.40;99.90;;;;;;5022847;28;20144;-76
2023/05/22 06:17:15;;;;;;;7.38;3.03;;;15.50;99.90;;;;;;5016288;28;20033;-75
2023/05/22 06:19:41;;;;;;;6.88;2.95;;;15.60;99.90;;;;;;5020605;28;20637;-76
2023/05/22 06:22:07;;;;;;;8.00;3.05;;;15.60;99.90;;;;;;5005187;28;20026;-76
2023/05/22 06:24:33;;;;;;;8.55;3.40;;;15.60;99.90;;;;;;5010040;28;20433;-76
2023/05/22 06:26:58;;;;;;;8.45;3.30;;;15.60;99.90;;;;;;5018041;28;20087;-76
2023/05/22 06:29:24;;;;;;;6.25;3.03;;;15.50;99.90;;;;;;5015479;28;20041;-75
2023/05/22 06:31:50;;;;;;;6.57;2.92;;;15.40;99.90;;;;;;5012282;28;20029;-76
2023/05/22 06:34:15;;;;;;;8.98;2.95;;;15.40;99.90;;;;;;5020239;28;20105;-76
2023/05/22 06:36:41;;;;;;;8.95;4.35;;;15.50;99.90;;;;;;5000574;28;20112;-76
2023/05/22 06:39:07;;;;;;;100.53;55.53;;;15.60;99.90;;;;;;5020790;28;20048;-76
2023/05/22 06:41:34;;;;;;;8.90;5.47;;;15.70;99.90;;;;;;5009505;28;20584;-76
2023/05/22 06:44:01;;;;;;;7.53;3.67;;;15.80;99.90;;;;;;5013298;28;20024;-76
2023/05/22 06:46:26;;;;;;;7.28;3.50;;;15.90;99.90;;;;;;5009001;28;20116;-76
2023/05/22 06:48:53;;;;;;;6.60;2.88;;;15.90;99.90;;;;;;5018595;28;20407;-76
2023/05/22 06:51:20;;;;;;;14.10;3.30;;;15.80;99.90;;;;;;5020298;28;20033;-76
2023/05/22 06:53:46;;;;;;;7.03;3.60;;;15.80;99.90;;;;;;5023287;28;20096;-76
2023/05/22 06:56:11;;;;;;;9.25;6.00;;;15.80;99.90;;;;;;5007299;28;20405;-76
2023/05/22 06:58:38;;;;;;;9.40;5.00;;;15.80;99.90;;;;;;5017729;28;20092;-76
2023/05/22 07:01:04;;;;;;;6.80;3.15;;;16.00;99.90;;;;;;5013202;28;20032;-75
2023/05/22 07:03:30;;;;;;;5.65;3.20;;;15.90;99.90;;;;;;4993305;28;20391;-75
2023/05/22 07:05:56;;;;;;;8.20;3.13;;;15.90;99.90;;;;;;5008354;28;20091;-76
2023/05/22 07:08:22;;;;;;;6.20;3.08;;;15.90;99.90;;;;;;4999751;28;20124;-76
2023/05/22 07:10:48;;;;;;;6.00;3.20;;;15.80;99.90;;;;;;5011674;28;20086;-76
2023/05/22 07:13:13;;;;;;;14.05;4.22;;;15.80;99.90;;;;;;5023375;28;20045;-77
2023/05/22 07:15:39;;;;;;;16.45;3.83;;;15.80;99.90;;;;;;5037321;28;20136;-77
2023/05/22 07:18:05;;;;;;;10.10;3.75;;;16.00;99.90;;;;;;5010708;28;20029;-77
2023/05/22 07:20:31;;;;;;;7.75;3.50;;;16.10;99.90;;;;;;5021387;28;20146;-77
2023/05/22 07:22:57;;;;;;;14.80;4.40;;;16.00;99.90;;;;;;5010286;28;20033;-77
2023/05/22 07:25:22;;;;;;;7.60;3.75;;;16.10;99.90;;;;;;5013666;28;20037;-77
2023/05/22 07:27:48;;;;;;;6.63;3.65;;;16.20;99.90;;;;;;5002256;28;20032;-77
2023/05/22 07:30:14;;;;;;;8.18;3.40;;;16.40;99.90;;;;;;5021856;28;20051;-76
2023/05/22 07:32:40;;;;;;;8.48;3.70;;;16.60;99.90;;;;;;5017689;28;20055;-76
2023/05/22 07:35:06;;;;;;;16.20;3.45;;;16.90;99.90;;;;;;5021237;28;20049;-76
2023/05/22 07:37:31;;;;;;;7.43;3.45;;;17.20;99.90;;;;;;5035568;28;20037;-78
2023/05/22 07:39:57;;;;;;;8.70;3.50;;;17.50;99.90;;;;;;5022534;28;20025;-76
2023/05/22 07:42:24;;;;;;;7.80;3.75;;;17.80;99.90;;;;;;5023078;28;20040;-77
2023/05/22 07:44:50;;;;;;;11.40;3.50;;;17.80;97.80;;;;;;5023395;28;20558;-77
2023/05/22 07:47:16;;;;;;;7.38;3.70;;;17.90;98.00;;;;;;5019469;28;20030;-78
2023/05/22 07:49:42;;;;;;;7.10;3.80;;;18.20;96.50;;;;;;5031943;28;20033;-77
2023/05/22 07:52:07;;;;;;;5.85;3.88;;;18.30;97.40;;;;;;5035057;28;20863;-76
2023/05/22 07:54:33;;;;;;;6.68;3.88;;;18.50;96.50;;;;;;5003554;28;20037;-77
2023/05/22 07:57:02;;;;;;;9.88;4.15;;;18.60;95.50;;;;;;5004679;28;20092;-77
2023/05/22 07:59:27;;;;;;;6.18;3.33;;;18.90;96.00;;;;;;5023648;28;20025;-77
2023/05/22 08:01:53;;;;;;;9.70;3.53;;;19.20;92.40;;;;;;5011839;28;20083;-77
2023/05/22 08:04:19;;;;;;;9.10;3.40;;;19.10;93.10;;;;;;5030890;28;20484;-77
2023/05/22 08:06:44;;;;;;;7.90;3.17;;;19.50;92.60;;;;;;4992809;28;20037;-76
2023/05/22 08:09:10;;;;;;;6.97;3.22;;;19.60;91.90;;;;;;4994094;28;20113;-77
2023/05/22 08:11:38;;;;;;;9.10;3.67;;;19.90;92.00;;;;;;5006080;28;20064;-77
2023/05/22 08:14:04;;;;;;;7.25;3.05;;;20.10;93.10;;;;;;5000793;28;20848;-79
2023/05/22 08:16:31;;;;;;;8.10;3.28;;;20.30;90.20;;;;;;5012403;28;20017;-77
2023/05/22 08:18:57;;;;;;;8.50;3.47;;;20.50;89.70;;;;;;5000641;28;21099;-78
2023/05/22 08:21:22;;;;;;;11.93;3.30;;;20.40;81.80;;;;;;5022412;28;20025;-78
2023/05/22 08:23:48;;;;;;;6.00;2.72;;;20.80;90.00;;;;;;4994396;28;20092;-78
2023/05/22 08:26:14;;;;;;;5.60;3.63;;;20.90;90.00;;;;;;4991046;28;20026;-76
2023/05/22 08:28:43;;;;;;;8.45;3.35;;;20.90;80.60;;;;;;4993382;28;20076;-78
2023/05/22 08:31:10;;;;;;;6.78;3.25;;;21.20;85.30;;;;;;5008790;28;20022;-78
2023/05/22 08:33:36;;;;;;;4.90;2.88;;;21.30;82.40;;;;;;5000039;28;20043;-77
2023/05/22 08:36:01;;;;;;;7.57;3.22;;;21.40;77.70;;;;;;4995333;28;20455;-78
2023/05/22 08:38:27;;;;;;;7.00;3.40;;;21.50;79.70;;;;;;4992954;28;20554;-77
2023/05/22 08:40:56;;;;;;;8.20;3.20;;;21.70;69.90;;;;;;5024324;28;20029;-77
2023/05/22 08:43:22;;;;;;;8.85;2.65;;;22.40;74.10;;;;;;5012018;28;20041;-78
2023/05/22 08:45:54;;;;;;;10.88;3.45;;;23.00;71.30;;;;;;4991909;28;20027;-77
2023/05/22 08:48:22;;;;;;;7.60;2.42;;;23.30;60.30;;;;;;4996864;28;20367;-77
2023/05/22 08:50:56;;;;;;;6.38;2.75;;;23.90;62.10;;;;;;4991577;28;20030;-76
2023/05/22 08:53:23;;;;;;;5.32;2.45;;;24.50;53.30;;;;;;5003942;28;20128;-77
2023/05/22 08:55:51;;;;;;;5.82;2.60;;;25.50;51.60;;;;;;5008414;28;20438;-78
2023/05/22 08:58:17;;;;;;;7.22;2.60;;;26.30;49.30;;;;;;4997097;28;20034;-78
2023/05/22 09:00:43;;;;;;;5.53;2.80;;;26.00;47.50;;;;;;5013763;28;20025;-75
2023/05/22 09:03:12;;;;;;;8.00;2.80;;;25.90;45.60;;;;;;4996874;28;21091;-76
2023/05/22 09:05:39;;;;;;;3.70;2.15;;;25.00;46.60;;;;;;4982359;28;20053;-78
2023/05/22 09:08:07;;;;;;;7.90;3.22;;;24.60;51.50;;;;;;5004147;28;20131;-76
2023/05/22 09:10:35;;;;;;;6.53;3.05;;;24.30;49.50;;;;;;5015173;28;20051;-77
2023/05/22 09:13:08;;;;;;;8.07;2.78;;;23.90;51.00;;;;;;5015936;28;20037;-75
2023/05/22 09:15:35;;;;;;;6.63;3.22;;;24.00;51.70;;;;;;5000118;28;20036;-76
2023/05/22 09:18:02;;;;;;;4.82;2.50;;;24.30;53.30;;;;;;5018812;28;20081;-76
2023/05/22 09:20:28;;;;;;;5.47;2.40;;;24.50;51.00;;;;;;4998304;28;20034;-75
2023/05/22 09:22:53;;;;;;;8.05;3.47;;;25.00;54.40;;;;;;4660305;28;10000452;-75
2023/05/22 09:25:20;;;;;;;9.60;2.92;;;24.50;50.10;;;;;;5030227;28;20117;-76
2023/05/22 09:27:49;;;;;;;6.97;3.03;;;24.80;54.60;;;;;;5022174;28;20071;-78
2023/05/22 09:30:16;;;;;;;4.78;2.42;;;25.20;49.70;;;;;;5001789;28;20381;-76
2023/05/22 09:32:42;;;;;;;8.02;3.10;;;26.00;48.50;;;;;;5000594;28;20044;-77
2023/05/22 09:35:08;;;;;;;4.50;2.63;;;25.40;49.30;;;;;;5006594;28;20436;-77
2023/05/22 09:37:36;;;;;;;5.05;3.00;;;25.70;50.10;;;;;;5013734;28;20025;-76
2023/05/22 09:40:10;;;;;;;7.18;3.30;;;25.30;47.80;;;;;;5018426;28;20033;-75
2023/05/22 09:42:36;;;;;;;6.50;3.13;;;26.10;48.00;;;;;;5012559;28;20550;-76
2023/05/22 09:45:06;;;;;;;7.07;2.83;;;25.70;45.00;;;;;;5018300;28;20116;-77
2023/05/22 09:47:35;;;;;;;6.60;3.00;;;25.70;48.20;;;;;;4989669;28;20563;-78
2023/05/22 09:50:06;;;;;;;4.95;2.75;;;25.80;47.20;;;;;;5002973;28;20180;-77
2023/05/22 09:52:35;;;;;;;4.80;2.72;;;25.50;48.80;;;;;;5014429;28;20049;-77
2023/05/22 09:55:03;;;;;;;6.75;3.13;;;25.90;48.80;;;;;;5007742;28;20092;-77
2023/05/22 09:57:32;;;;;;;6.45;3.28;;;25.40;48.00;;;;;;4997792;28;20044;-77
2023/05/22 09:59:59;;;;;;;11.27;2.85;;;25.00;48.70;;;;;;4999954;28;20037;-78
2023/05/22 10:02:26;;;;;;;5.55;2.90;;;24.80;46.20;;;;;;5030271;28;20029;-77
2023/05/22 10:04:53;;;;;;;8.00;3.00;;;25.00;46.50;;;;;;4996023;28;20047;-77
2023/05/22 10:07:23;;;;;;;7.63;3.33;;;25.60;49.00;;;;;;5026806;28;20045;-76
2023/05/22 10:10:03;;;;;;;8.27;2.90;;;26.40;46.30;;;;;;4999207;28;20035;-75
2023/05/22 10:12:34;;;;;;;10.23;2.80;;;28.10;45.90;;;;;;5008323;28;20036;-75
2023/05/22 10:15:01;;;;;;;6.72;3.10;;;28.90;40.50;;;;;;5011624;28;20133;-76
2023/05/22 10:17:28;;;;;;;4.65;2.97;;;30.30;40.00;;;;;;4997253;28;20025;-77
2023/05/22 10:19:56;;;;;;;7.65;2.30;;;31.30;39.30;;;;;;5007073;28;20506;-77
2023/05/22 10:22:24;;;;;;;7.03;2.50;;;33.60;38.50;;;;;;5003337;28;20037;-76
2023/05/22 10:24:51;;;;;;;4.93;2.60;;;34.00;33.90;;;;;;5020291;28;20021;-77
2023/05/22 10:27:17;;;;;;;7.50;3.20;;;34.80;32.80;;;;;;5024121;28;20360;-76
2023/05/22 10:29:55;;;;;;;4.43;2.55;;;33.70;30.50;;;;;;4993604;28;20044;-74
2023/05/22 10:32:37;;;;;;;4.13;2.42;;;35.60;29.90;;;;;;5025982;28;20030;-75
2023/05/22 10:35:22;;;;;;;4.55;2.47;;;36.50;28.40;;;;;;4997299;28;20029;-77
2023/05/22 10:38:32;;;;;;;5.10;2.58;;;36.40;30.20;;;;;;5001716;28;20040;-76
2023/05/22 10:40:58;;;;;;;3.83;2.00;;;34.60;28.00;;;;;;4969293;28;20041;-76
2023/05/22 10:43:24;;;;;;;5.57;2.10;;;35.60;31.90;;;;;;5003026;28;20041;-75
2023/05/22 10:46:04;;;;;;;7.18;2.20;;;36.20;33.00;;;;;;5002974;28;20498;-75
2023/05/22 10:48:39;;;;;;;6.05;2.50;;;36.40;29.40;;;;;;5029260;28;20528;-77
2023/05/22 10:51:08;;;;;;;6.07;2.08;;;36.20;29.80;;;;;;4991181;28;20041;-75
2023/05/22 10:53:35;;;;;;;7.32;3.10;;;36.20;30.30;;;;;;5017755;28;20039;-77
2023/05/22 10:56:18;;;;;;;5.93;2.72;;;35.80;28.20;;;;;;5017101;28;20033;-76
2023/05/22 10:58:55;;;;;;;6.07;2.45;;;35.10;29.50;;;;;;5006733;28;20045;-77
2023/05/22 11:01:24;;;;;;;5.68;2.50;;;35.90;29.80;;;;;;4985940;28;20041;-77
2023/05/22 11:03:54;;;;;;;5.10;2.38;;;35.80;30.00;;;;;;5006544;28;20036;-73
2023/05/22 11:06:40;;;;;;;2.83;2.43;;;36.30;29.90;;;;;;5004028;28;20225;-74
2023/05/22 11:09:28;;;;;;;5.13;2.47;;;36.40;29.20;;;;;;4988641;28;20049;-77
2023/05/22 11:12:23;;;;;;;5.38;2.85;;;35.00;28.70;;;;;;4997417;28;20021;-77
2023/05/22 11:14:57;;;;;;;6.75;2.95;;;34.00;32.10;;;;;;5008787;28;20428;-77
2023/05/22 11:17:27;;;;;;;6.45;2.63;;;34.20;34.00;;;;;;4992489;28;20089;-77
2023/05/22 11:20:23;;;;;;;6.15;2.60;;;34.60;30.80;;;;;;4994006;28;20050;-77
2023/05/22 11:22:59;;;;;;;6.13;2.75;;;33.10;29.90;;;;;;4995763;28;20025;-77
2023/05/22 11:25:26;;;;;;;6.45;2.40;;;31.40;33.50;;;;;;5009517;28;20095;-77
2023/05/22 11:27:53;;;;;;;5.65;2.60;;;30.80;35.10;;;;;;5018583;28;20076;-77
2023/05/22 11:30:19;;;;;;;4.78;2.78;;;30.40;36.10;;;;;;5020021;28;20437;-77
2023/05/22 11:32:46;;;;;;;8.27;2.80;;;29.20;37.30;;;;;;4987710;28;20094;-77
2023/05/22 11:35:20;;;;;;;5.63;3.40;;;28.00;41.40;;;;;;5006059;28;20021;-77
2023/05/22 11:37:47;;;;;;;5.43;2.95;;;27.20;43.90;;;;;;4994572;28;20029;-77
2023/05/22 11:40:16;;;;;;;4.70;2.70;;;26.40;44.60;;;;;;5005950;28;20044;-76
2023/05/22 11:42:41;;;;;;;4.10;2.80;;;26.10;44.50;;;;;;5005763;28;20464;-77
2023/05/22 11:45:07;;;;;;;6.07;2.85;;;26.40;45.40;;;;;;5007577;28;20033;-78
2023/05/22 11:47:33;;;;;;;6.18;3.17;;;26.80;45.30;;;;;;4997764;28;21227;-78
2023/05/22 11:50:00;;;;;;;6.60;2.70;;;26.50;41.00;;;;;;5030806;28;20129;-77
2023/05/22 11:52:32;;;;;;;4.60;2.97;;;26.50;44.80;;;;;;5004487;28;20465;-77
2023/05/22 11:54:58;;;;;;;6.80;2.72;;;26.90;45.70;;;;;;4995075;28;20593;-76
2023/05/22 11:57:23;;;;;;;6.07;3.00;;;26.60;43.40;;;;;;5014305;28;20041;-77
2023/05/22 11:59:49;;;;;;;7.00;3.00;;;26.80;45.40;;;;;;5020785;28;20484;-77
2023/05/22 12:02:15;;;;;;;6.07;2.85;;;26.50;46.80;;;;;;5022374;28;20053;-77
2023/05/22 12:04:41;;;;;;;7.85;3.53;;;27.10;48.40;;;;;;5029398;28;20042;-77
2023/05/22 12:07:07;;;;;;;6.88;3.38;;;27.10;41.80;;;;;;5003343;28;20056;-76
2023/05/22 12:09:33;;;;;;;4.75;3.20;;;26.70;46.10;;;;;;4688913;28;10000297;-77
2023/05/22 12:11:59;;;;;;;7.25;3.35;;;25.80;40.60;;;;;;4998587;28;20065;-78
2023/05/22 12:14:26;;;;;;;6.22;3.83;;;25.80;46.30;;;;;;5003830;28;20057;-78
2023/05/22 12:16:52;;;;;;;7.80;3.53;;;25.40;44.10;;;;;;5004082;28;20029;-77
2023/05/22 12:19:17;;;;;;;9.02;3.85;;;25.70;46.50;;;;;;5021160;28;20585;-78
2023/05/22 12:21:44;;;;;;;9.70;3.33;;;26.10;49.90;;;;;;5012466;28;20118;-77
2023/05/22 12:24:10;;;;;;;5.53;3.15;;;26.70;42.90;;;;;;5000486;28;20025;-78
2023/05/22 12:26:36;;;;;;;10.40;3.45;;;26.60;46.50;;;;;;5002265;28;20876;-76
2023/05/22 12:29:03;;;;;;;6.50;3.33;;;26.10;46.30;;;;;;5032755;28;20044;-76
2023/05/22 12:31:35;;;;;;;8.90;3.58;;;26.00;47.90;;;;;;5004376;28;20037;-78
2023/05/22 12:34:05;;;;;;;7.88;3.22;;;25.80;43.50;;;;;;5021423;28;20040;-77
2023/05/22 12:36:41;;;;;;;4.50;2.88;;;25.60;48.40;;;;;;5017365;28;20035;-77
2023/05/22 12:39:17;;;;;;;9.18;3.30;;;25.70;46.70;;;;;;5004729;28;20074;-78
2023/05/22 12:41:44;;;;;;;5.55;2.97;;;26.50;51.20;;;;;;5002891;28;20107;-77
2023/05/22 12:44:10;;;;;;;13.23;3.78;;;26.50;47.30;;;;;;5002790;28;20033;-77
2023/05/22 12:46:36;;;;;;;7.30;2.80;;;26.30;45.00;;;;;;5037636;28;20029;-79
2023/05/22 12:49:02;;;;;;;6.28;2.80;;;26.40;44.00;;;;;;5040179;28;20033;-77
2023/05/22 12:51:30;;;;;;;5.85;3.08;;;26.00;46.50;;;;;;5023191;28;20128;-76
2023/05/22 12:53:59;;;;;;;8.48;2.88;;;25.50;45.80;;;;;;5020822;28;20045;-77
2023/05/22 12:56:25;;;;;;;8.55;2.97;;;25.30;45.10;;;;;;5014155;28;20029;-76
2023/05/22 12:58:51;;;;;;;4.72;2.63;;;25.10;48.20;;;;;;4983902;28;20129;-77